sensor_id;sensor_type;location;lat;lon;timestamp;P1;durP1;ratioP1;P2;durP2;ratioP2
48743;SDS011;34538;48.836;9.174;2023-12-04T00:01:44;21.00;;;10.63;;
48743;SDS011;34538;48.836;9.174;2023-12-04T00:04:11;19.53;;;9.77;;
48743;SDS011;34538;48.836;9.174;2023-12-04T00:06:38;22.17;;;10.87;;
48743;SDS011;34538;48.836;9.174;2023-12-04T00:09:06;20.43;;;10.40;;
48743;SDS011;34538;48.836;9.174;2023-12-04T00:11:33;22.37;;;10.93;;
48743;SDS011;34538;48.836;9.174;2023-12-04T00:14:00;23.07;;;10.93;;
48743;SDS011;34538;48.836;9.174;2023-12-04T00:16:27;21.37;;;11.70;;
48743;SDS011;34538;48.836;9.174;2023-12-04T00:18:55;18.87;;;10.37;;
48743;SDS011;34538;48.836;9.174;2023-12-04T00:21:22;17.63;;;9.47;;
48743;SDS011;34538;48.836;9.174;2023-12-04T00:23:49;22.40;;;10.27;;
48743;SDS011;34538;48.836;9.174;2023-12-04T00:26:16;18.33;;;9.73;;
48743;SDS011;34538;48.836;9.174;2023-12-04T00:28:43;20.93;;;11.23;;
48743;SDS011;34538;48.836;9.174;2023-12-04T00:31:09;20.03;;;9.53;;
48743;SDS011;34538;48.836;9.174;2023-12-04T00:33:37;18.17;;;9.83;;
48743;SDS011;34538;48.836;9.174;2023-12-04T00:36:05;23.20;;;10.53;;
48743;SDS011;34538;48.836;9.174;2023-12-04T00:38:33;21.30;;;10.27;;
48743;SDS011;34538;48.836;9.174;2023-12-04T00:41:00;19.20;;;9.80;;
48743;SDS011;34538;48.836;9.174;2023-12-04T00:43:27;22.53;;;9.73;;
48743;SDS011;34538;48.836;9.174;2023-12-04T00:45:54;21.57;;;10.53;;
48743;SDS011;34538;48.836;9.174;2023-12-04T00:48:20;20.03;;;10.10;;
48743;SDS011;34538;48.836;9.174;2023-12-04T00:50:47;24.37;;;12.00;;
48743;SDS011;34538;48.836;9.174;2023-12-04T00:53:15;20.37;;;10.43;;
48743;SDS011;34538;48.836;9.174;2023-12-04T00:55:42;19.80;;;10.57;;
48743;SDS011;34538;48.836;9.174;2023-12-04T00:58:09;20.00;;;10.57;;
48743;SDS011;34538;48.836;9.174;2023-12-04T01:00:36;20.93;;;10.07;;
48743;SDS011;34538;48.836;9.174;2023-12-04T01:03:03;20.50;;;9.90;;
48743;SDS011;34538;48.836;9.174;2023-12-04T01:05:30;21.87;;;10.10;;
48743;SDS011;34538;48.836;9.174;2023-12-04T01:07:57;20.23;;;10.30;;
48743;SDS011;34538;48.836;9.174;2023-12-04T01:10:25;24.23;;;10.47;;
48743;SDS011;34538;48.836;9.174;2023-12-04T01:12:52;20.57;;;10.13;;
48743;SDS011;34538;48.836;9.174;2023-12-04T01:15:19;24.03;;;10.73;;
48743;SDS011;34538;48.836;9.174;2023-12-04T01:17:46;20.97;;;9.93;;
48743;SDS011;34538;48.836;9.174;2023-12-04T01:20:13;22.23;;;10.67;;
48743;SDS011;34538;48.836;9.174;2023-12-04T01:22:40;23.50;;;10.13;;
48743;SDS011;34538;48.836;9.174;2023-12-04T01:25:08;21.40;;;11.37;;
48743;SDS011;34538;48.836;9.174;2023-12-04T01:27:37;22.03;;;10.63;;
48743;SDS011;34538;48.836;9.174;2023-12-04T01:30:06;20.93;;;11.03;;
48743;SDS011;34538;48.836;9.174;2023-12-04T01:32:34;21.97;;;10.87;;
48743;SDS011;34538;48.836;9.174;2023-12-04T01:35:01;22.30;;;11.07;;
48743;SDS011;34538;48.836;9.174;2023-12-04T01:37:29;24.80;;;11.23;;
48743;SDS011;34538;48.836;9.174;2023-12-04T01:39:56;22.70;;;11.07;;
48743;SDS011;34538;48.836;9.174;2023-12-04T01:42:23;24.00;;;12.07;;
48743;SDS011;34538;48.836;9.174;2023-12-04T01:44:51;19.67;;;9.63;;
48743;SDS011;34538;48.836;9.174;2023-12-04T01:47:19;20.80;;;10.40;;
48743;SDS011;34538;48.836;9.174;2023-12-04T01:49:47;24.60;;;11.10;;
48743;SDS011;34538;48.836;9.174;2023-12-04T01:52:14;24.10;;;11.40;;
48743;SDS011;34538;48.836;9.174;2023-12-04T01:54:41;21.53;;;10.20;;
48743;SDS011;34538;48.836;9.174;2023-12-04T01:57:09;20.70;;;10.07;;
48743;SDS011;34538;48.836;9.174;2023-12-04T01:59:37;20.77;;;10.73;;
48743;SDS011;34538;48.836;9.174;2023-12-04T02:02:06;21.80;;;10.60;;
48743;SDS011;34538;48.836;9.174;2023-12-04T02:04:33;22.63;;;10.97;;
48743;SDS011;34538;48.836;9.174;2023-12-04T02:07:00;21.13;;;10.63;;
48743;SDS011;34538;48.836;9.174;2023-12-04T02:09:27;23.13;;;10.50;;
48743;SDS011;34538;48.836;9.174;2023-12-04T02:11:55;17.67;;;9.80;;
48743;SDS011;34538;48.836;9.174;2023-12-04T02:14:22;23.77;;;10.57;;
48743;SDS011;34538;48.836;9.174;2023-12-04T02:16:49;19.90;;;9.27;;
48743;SDS011;34538;48.836;9.174;2023-12-04T02:19:19;23.87;;;10.57;;
48743;SDS011;34538;48.836;9.174;2023-12-04T02:21:47;20.90;;;10.23;;
48743;SDS011;34538;48.836;9.174;2023-12-04T02:24:15;22.67;;;10.50;;
48743;SDS011;34538;48.836;9.174;2023-12-04T02:26:44;19.87;;;10.37;;
48743;SDS011;34538;48.836;9.174;2023-12-04T02:29:15;24.40;;;10.80;;
48743;SDS011;34538;48.836;9.174;2023-12-04T02:31:48;25.60;;;11.13;;
48743;SDS011;34538;48.836;9.174;2023-12-04T02:34:17;22.60;;;10.43;;
48743;SDS011;34538;48.836;9.174;2023-12-04T02:36:46;24.47;;;11.33;;
48743;SDS011;34538;48.836;9.174;2023-12-04T02:39:15;23.27;;;10.57;;
48743;SDS011;34538;48.836;9.174;2023-12-04T02:41:43;23.87;;;11.03;;
48743;SDS011;34538;48.836;9.174;2023-12-04T02:44:10;22.40;;;10.40;;
48743;SDS011;34538;48.836;9.174;2023-12-04T02:46:37;23.40;;;10.60;;
48743;SDS011;34538;48.836;9.174;2023-12-04T02:49:04;23.60;;;12.00;;
48743;SDS011;34538;48.836;9.174;2023-12-04T02:51:32;25.60;;;11.67;;
48743;SDS011;34538;48.836;9.174;2023-12-04T02:53:58;21.33;;;10.50;;
48743;SDS011;34538;48.836;9.174;2023-12-04T02:56:27;22.30;;;11.40;;
48743;SDS011;34538;48.836;9.174;2023-12-04T02:58:54;24.50;;;10.97;;
48743;SDS011;34538;48.836;9.174;2023-12-04T03:01:21;20.57;;;11.40;;
48743;SDS011;34538;48.836;9.174;2023-12-04T03:03:48;25.60;;;10.47;;
48743;SDS011;34538;48.836;9.174;2023-12-04T03:06:15;22.17;;;10.83;;
48743;SDS011;34538;48.836;9.174;2023-12-04T03:08:42;22.47;;;10.53;;
48743;SDS011;34538;48.836;9.174;2023-12-04T03:11:09;20.50;;;10.07;;
48743;SDS011;34538;48.836;9.174;2023-12-04T03:13:36;23.10;;;10.50;;
48743;SDS011;34538;48.836;9.174;2023-12-04T03:16:03;19.40;;;9.17;;
48743;SDS011;34538;48.836;9.174;2023-12-04T03:18:31;22.43;;;11.53;;
48743;SDS011;34538;48.836;9.174;2023-12-04T03:20:58;20.23;;;10.43;;
48743;SDS011;34538;48.836;9.174;2023-12-04T03:23:25;21.57;;;10.43;;
48743;SDS011;34538;48.836;9.174;2023-12-04T03:25:52;20.07;;;9.70;;
48743;SDS011;34538;48.836;9.174;2023-12-04T03:28:19;19.37;;;10.30;;
48743;SDS011;34538;48.836;9.174;2023-12-04T03:30:47;20.70;;;10.07;;
48743;SDS011;34538;48.836;9.174;2023-12-04T03:33:14;18.97;;;9.20;;
48743;SDS011;34538;48.836;9.174;2023-12-04T03:35:41;25.27;;;10.30;;
48743;SDS011;34538;48.836;9.174;2023-12-04T03:38:07;23.10;;;10.20;;
48743;SDS011;34538;48.836;9.174;2023-12-04T03:40:34;19.90;;;10.13;;
48743;SDS011;34538;48.836;9.174;2023-12-04T03:43:01;19.33;;;9.97;;
48743;SDS011;34538;48.836;9.174;2023-12-04T03:45:28;22.67;;;11.23;;
48743;SDS011;34538;48.836;9.174;2023-12-04T03:47:56;20.57;;;9.43;;
48743;SDS011;34538;48.836;9.174;2023-12-04T03:50:23;23.53;;;10.70;;
48743;SDS011;34538;48.836;9.174;2023-12-04T03:52:50;17.87;;;8.63;;
48743;SDS011;34538;48.836;9.174;2023-12-04T03:55:16;22.83;;;10.30;;
48743;SDS011;34538;48.836;9.174;2023-12-04T03:57:44;20.90;;;10.33;;
48743;SDS011;34538;48.836;9.174;2023-12-04T04:00:12;21.77;;;10.00;;
48743;SDS011;34538;48.836;9.174;2023-12-04T04:02:39;21.30;;;9.70;;
48743;SDS011;34538;48.836;9.174;2023-12-04T04:05:08;20.33;;;10.43;;
48743;SDS011;34538;48.836;9.174;2023-12-04T04:07:35;19.37;;;9.83;;
48743;SDS011;34538;48.836;9.174;2023-12-04T04:10:02;21.43;;;10.00;;
48743;SDS011;34538;48.836;9.174;2023-12-04T04:12:30;19.37;;;9.60;;
48743;SDS011;34538;48.836;9.174;2023-12-04T04:14:56;23.20;;;10.13;;
48743;SDS011;34538;48.836;9.174;2023-12-04T04:17:23;16.63;;;9.23;;
48743;SDS011;34538;48.836;9.174;2023-12-04T04:19:51;21.20;;;10.03;;
48743;SDS011;34538;48.836;9.174;2023-12-04T04:22:19;24.40;;;10.50;;
48743;SDS011;34538;48.836;9.174;2023-12-04T04:24:46;20.40;;;9.33;;
48743;SDS011;34538;48.836;9.174;2023-12-04T04:27:13;21.20;;;10.40;;
48743;SDS011;34538;48.836;9.174;2023-12-04T04:29:41;20.27;;;10.60;;
48743;SDS011;34538;48.836;9.174;2023-12-04T04:32:07;20.30;;;9.37;;
48743;SDS011;34538;48.836;9.174;2023-12-04T04:34:34;20.73;;;9.80;;
48743;SDS011;34538;48.836;9.174;2023-12-04T04:37:01;19.90;;;9.20;;
48743;SDS011;34538;48.836;9.174;2023-12-04T04:39:30;19.07;;;10.10;;
48743;SDS011;34538;48.836;9.174;2023-12-04T04:41:56;19.27;;;10.27;;
48743;SDS011;34538;48.836;9.174;2023-12-04T04:44:23;17.60;;;9.77;;
48743;SDS011;34538;48.836;9.174;2023-12-04T04:46:50;17.93;;;9.40;;
48743;SDS011;34538;48.836;9.174;2023-12-04T04:49:17;19.17;;;9.60;;
48743;SDS011;34538;48.836;9.174;2023-12-04T04:51:44;21.80;;;9.30;;
48743;SDS011;34538;48.836;9.174;2023-12-04T04:54:11;20.07;;;9.87;;
48743;SDS011;34538;48.836;9.174;2023-12-04T04:56:39;17.60;;;9.20;;
48743;SDS011;34538;48.836;9.174;2023-12-04T04:59:06;20.67;;;10.07;;
48743;SDS011;34538;48.836;9.174;2023-12-04T05:01:32;19.00;;;9.83;;
48743;SDS011;34538;48.836;9.174;2023-12-04T05:04:00;19.43;;;9.40;;
48743;SDS011;34538;48.836;9.174;2023-12-04T05:06:27;18.83;;;9.60;;
48743;SDS011;34538;48.836;9.174;2023-12-04T05:08:54;21.57;;;10.30;;
48743;SDS011;34538;48.836;9.174;2023-12-04T05:11:20;18.07;;;9.23;;
48743;SDS011;34538;48.836;9.174;2023-12-04T05:13:50;23.67;;;9.37;;
48743;SDS011;34538;48.836;9.174;2023-12-04T05:16:16;18.77;;;10.33;;
48743;SDS011;34538;48.836;9.174;2023-12-04T05:18:44;18.77;;;9.47;;
48743;SDS011;34538;48.836;9.174;2023-12-04T05:21:11;21.23;;;10.13;;
48743;SDS011;34538;48.836;9.174;2023-12-04T05:23:38;16.43;;;9.43;;
48743;SDS011;34538;48.836;9.174;2023-12-04T05:26:06;18.13;;;9.57;;
48743;SDS011;34538;48.836;9.174;2023-12-04T05:28:33;18.13;;;9.33;;
48743;SDS011;34538;48.836;9.174;2023-12-04T05:31:01;16.27;;;8.57;;
48743;SDS011;34538;48.836;9.174;2023-12-04T05:33:28;17.03;;;8.63;;
48743;SDS011;34538;48.836;9.174;2023-12-04T05:35:55;15.33;;;8.43;;
48743;SDS011;34538;48.836;9.174;2023-12-04T05:38:22;17.40;;;9.13;;
48743;SDS011;34538;48.836;9.174;2023-12-04T05:40:49;14.53;;;7.97;;
48743;SDS011;34538;48.836;9.174;2023-12-04T05:43:16;17.43;;;9.13;;
48743;SDS011;34538;48.836;9.174;2023-12-04T05:45:44;19.10;;;9.03;;
48743;SDS011;34538;48.836;9.174;2023-12-04T05:48:12;17.40;;;8.67;;
48743;SDS011;34538;48.836;9.174;2023-12-04T05:50:39;18.27;;;9.07;;
48743;SDS011;34538;48.836;9.174;2023-12-04T05:53:06;18.60;;;9.40;;
48743;SDS011;34538;48.836;9.174;2023-12-04T05:55:33;15.87;;;8.77;;
48743;SDS011;34538;48.836;9.174;2023-12-04T05:58:00;18.57;;;8.67;;
48743;SDS011;34538;48.836;9.174;2023-12-04T06:00:27;15.77;;;9.30;;
48743;SDS011;34538;48.836;9.174;2023-12-04T06:02:54;16.73;;;7.93;;
48743;SDS011;34538;48.836;9.174;2023-12-04T06:05:23;13.63;;;7.90;;
48743;SDS011;34538;48.836;9.174;2023-12-04T06:07:49;16.27;;;8.40;;
48743;SDS011;34538;48.836;9.174;2023-12-04T06:10:16;16.07;;;8.47;;
48743;SDS011;34538;48.836;9.174;2023-12-04T06:12:43;14.57;;;7.53;;
48743;SDS011;34538;48.836;9.174;2023-12-04T06:15:10;16.23;;;8.77;;
48743;SDS011;34538;48.836;9.174;2023-12-04T06:17:37;17.67;;;8.20;;
48743;SDS011;34538;48.836;9.174;2023-12-04T06:20:04;17.03;;;8.43;;
48743;SDS011;34538;48.836;9.174;2023-12-04T06:22:34;14.63;;;7.57;;
48743;SDS011;34538;48.836;9.174;2023-12-04T06:25:02;14.93;;;8.07;;
48743;SDS011;34538;48.836;9.174;2023-12-04T06:27:30;16.20;;;7.80;;
48743;SDS011;34538;48.836;9.174;2023-12-04T06:29:57;15.90;;;8.23;;
48743;SDS011;34538;48.836;9.174;2023-12-04T06:32:25;13.97;;;7.57;;
48743;SDS011;34538;48.836;9.174;2023-12-04T06:34:52;16.43;;;8.47;;
48743;SDS011;34538;48.836;9.174;2023-12-04T06:37:20;18.47;;;8.50;;
48743;SDS011;34538;48.836;9.174;2023-12-04T06:39:49;16.47;;;8.80;;
48743;SDS011;34538;48.836;9.174;2023-12-04T06:42:19;19.03;;;8.30;;
48743;SDS011;34538;48.836;9.174;2023-12-04T06:44:47;16.87;;;8.33;;
48743;SDS011;34538;48.836;9.174;2023-12-04T06:47:14;14.93;;;7.53;;
48743;SDS011;34538;48.836;9.174;2023-12-04T06:49:48;15.73;;;8.43;;
48743;SDS011;34538;48.836;9.174;2023-12-04T06:52:15;17.33;;;8.70;;
48743;SDS011;34538;48.836;9.174;2023-12-04T06:54:42;18.97;;;8.53;;
48743;SDS011;34538;48.836;9.174;2023-12-04T06:57:10;20.40;;;8.93;;
48743;SDS011;34538;48.836;9.174;2023-12-04T06:59:39;17.77;;;8.25;;
48743;SDS011;34538;48.836;9.174;2023-12-04T07:02:06;20.37;;;9.97;;
48743;SDS011;34538;48.836;9.174;2023-12-04T07:04:33;19.97;;;8.90;;
48743;SDS011;34538;48.836;9.174;2023-12-04T07:07:00;14.60;;;8.33;;
48743;SDS011;34538;48.836;9.174;2023-12-04T07:09:30;17.37;;;8.23;;
48743;SDS011;34538;48.836;9.174;2023-12-04T07:11:57;14.37;;;8.00;;
48743;SDS011;34538;48.836;9.174;2023-12-04T07:14:25;15.70;;;8.27;;
48743;SDS011;34538;48.836;9.174;2023-12-04T07:16:53;16.03;;;7.73;;
48743;SDS011;34538;48.836;9.174;2023-12-04T07:19:20;17.63;;;8.13;;
48743;SDS011;34538;48.836;9.174;2023-12-04T07:21:47;19.10;;;9.43;;
48743;SDS011;34538;48.836;9.174;2023-12-04T07:24:15;19.53;;;9.17;;
48743;SDS011;34538;48.836;9.174;2023-12-04T07:26:41;16.97;;;8.93;;
48743;SDS011;34538;48.836;9.174;2023-12-04T07:29:09;14.87;;;8.57;;
48743;SDS011;34538;48.836;9.174;2023-12-04T07:31:37;14.47;;;8.23;;
48743;SDS011;34538;48.836;9.174;2023-12-04T07:34:03;18.43;;;8.70;;
48743;SDS011;34538;48.836;9.174;2023-12-04T07:36:30;18.23;;;8.20;;
48743;SDS011;34538;48.836;9.174;2023-12-04T07:38:57;16.37;;;8.90;;
48743;SDS011;34538;48.836;9.174;2023-12-04T07:41:24;16.47;;;9.13;;
48743;SDS011;34538;48.836;9.174;2023-12-04T07:43:51;14.50;;;7.40;;
48743;SDS011;34538;48.836;9.174;2023-12-04T07:46:20;16.37;;;8.23;;
48743;SDS011;34538;48.836;9.174;2023-12-04T07:48:48;15.00;;;8.13;;
48743;SDS011;34538;48.836;9.174;2023-12-04T07:51:15;15.77;;;8.43;;
48743;SDS011;34538;48.836;9.174;2023-12-04T07:53:42;16.93;;;7.90;;
48743;SDS011;34538;48.836;9.174;2023-12-04T07:56:09;16.37;;;8.20;;
48743;SDS011;34538;48.836;9.174;2023-12-04T07:58:37;18.80;;;7.90;;
48743;SDS011;34538;48.836;9.174;2023-12-04T08:01:05;19.30;;;9.37;;
48743;SDS011;34538;48.836;9.174;2023-12-04T08:03:32;17.10;;;8.20;;
48743;SDS011;34538;48.836;9.174;2023-12-04T08:06:00;18.93;;;9.10;;
48743;SDS011;34538;48.836;9.174;2023-12-04T08:08:28;20.43;;;10.17;;
48743;SDS011;34538;48.836;9.174;2023-12-04T08:10:56;19.70;;;10.20;;
48743;SDS011;34538;48.836;9.174;2023-12-04T08:13:23;17.70;;;9.57;;
48743;SDS011;34538;48.836;9.174;2023-12-04T08:15:49;17.37;;;9.63;;
48743;SDS011;34538;48.836;9.174;2023-12-04T08:18:17;17.60;;;8.87;;
48743;SDS011;34538;48.836;9.174;2023-12-04T08:20:43;19.23;;;9.33;;
48743;SDS011;34538;48.836;9.174;2023-12-04T08:23:12;18.17;;;9.20;;
48743;SDS011;34538;48.836;9.174;2023-12-04T08:25:39;15.53;;;8.17;;
48743;SDS011;34538;48.836;9.174;2023-12-04T08:28:06;14.83;;;8.10;;
48743;SDS011;34538;48.836;9.174;2023-12-04T08:30:34;17.03;;;8.73;;
48743;SDS011;34538;48.836;9.174;2023-12-04T08:33:00;15.13;;;7.53;;
48743;SDS011;34538;48.836;9.174;2023-12-04T08:35:28;14.37;;;7.97;;
48743;SDS011;34538;48.836;9.174;2023-12-04T08:37:55;14.37;;;7.67;;
48743;SDS011;34538;48.836;9.174;2023-12-04T08:40:23;15.73;;;8.40;;
48743;SDS011;34538;48.836;9.174;2023-12-04T08:42:50;15.67;;;9.30;;
48743;SDS011;34538;48.836;9.174;2023-12-04T08:45:17;13.43;;;7.63;;
48743;SDS011;34538;48.836;9.174;2023-12-04T08:47:44;13.73;;;7.93;;
48743;SDS011;34538;48.836;9.174;2023-12-04T08:50:11;15.10;;;8.17;;
48743;SDS011;34538;48.836;9.174;2023-12-04T08:52:37;16.57;;;9.87;;
48743;SDS011;34538;48.836;9.174;2023-12-04T08:55:07;14.23;;;7.87;;
48743;SDS011;34538;48.836;9.174;2023-12-04T08:57:35;14.13;;;7.90;;
48743;SDS011;34538;48.836;9.174;2023-12-04T09:00:02;13.37;;;7.80;;
48743;SDS011;34538;48.836;9.174;2023-12-04T09:02:30;12.10;;;7.17;;
48743;SDS011;34538;48.836;9.174;2023-12-04T09:04:56;15.70;;;7.90;;
48743;SDS011;34538;48.836;9.174;2023-12-04T09:07:23;14.30;;;7.47;;
48743;SDS011;34538;48.836;9.174;2023-12-04T09:09:50;15.03;;;8.07;;
48743;SDS011;34538;48.836;9.174;2023-12-04T09:12:17;16.07;;;8.27;;
48743;SDS011;34538;48.836;9.174;2023-12-04T09:14:45;14.93;;;7.53;;
48743;SDS011;34538;48.836;9.174;2023-12-04T09:17:12;15.77;;;8.17;;
48743;SDS011;34538;48.836;9.174;2023-12-04T09:19:39;14.37;;;8.17;;
48743;SDS011;34538;48.836;9.174;2023-12-04T09:22:06;17.40;;;7.93;;
48743;SDS011;34538;48.836;9.174;2023-12-04T09:24:33;17.60;;;7.73;;
48743;SDS011;34538;48.836;9.174;2023-12-04T09:27:00;19.73;;;8.00;;
48743;SDS011;34538;48.836;9.174;2023-12-04T09:29:27;15.87;;;8.33;;
48743;SDS011;34538;48.836;9.174;2023-12-04T09:31:55;17.67;;;8.47;;
48743;SDS011;34538;48.836;9.174;2023-12-04T09:34:22;13.40;;;7.33;;
48743;SDS011;34538;48.836;9.174;2023-12-04T09:36:49;14.43;;;7.83;;
48743;SDS011;34538;48.836;9.174;2023-12-04T09:39:15;16.97;;;9.13;;
48743;SDS011;34538;48.836;9.174;2023-12-04T09:41:43;15.07;;;7.63;;
48743;SDS011;34538;48.836;9.174;2023-12-04T09:44:11;14.30;;;7.87;;
48743;SDS011;34538;48.836;9.174;2023-12-04T09:46:38;15.63;;;7.37;;
48743;SDS011;34538;48.836;9.174;2023-12-04T09:49:07;12.93;;;8.00;;
48743;SDS011;34538;48.836;9.174;2023-12-04T09:51:34;15.87;;;7.17;;
48743;SDS011;34538;48.836;9.174;2023-12-04T09:54:04;14.07;;;7.37;;
48743;SDS011;34538;48.836;9.174;2023-12-04T09:56:31;13.80;;;7.40;;
48743;SDS011;34538;48.836;9.174;2023-12-04T09:59:00;13.20;;;7.73;;
48743;SDS011;34538;48.836;9.174;2023-12-04T10:01:28;19.33;;;7.87;;
48743;SDS011;34538;48.836;9.174;2023-12-04T10:03:56;15.50;;;7.83;;
48743;SDS011;34538;48.836;9.174;2023-12-04T10:06:27;12.77;;;7.33;;
48743;SDS011;34538;48.836;9.174;2023-12-04T10:08:54;10.57;;;5.73;;
48743;SDS011;34538;48.836;9.174;2023-12-04T10:11:22;13.00;;;7.60;;
48743;SDS011;34538;48.836;9.174;2023-12-04T10:13:49;12.47;;;7.17;;
48743;SDS011;34538;48.836;9.174;2023-12-04T10:16:30;16.57;;;9.03;;
48743;SDS011;34538;48.836;9.174;2023-12-04T10:19:01;15.77;;;8.30;;
48743;SDS011;34538;48.836;9.174;2023-12-04T10:21:42;15.00;;;8.60;;
48743;SDS011;34538;48.836;9.174;2023-12-04T10:24:10;16.50;;;8.10;;
48743;SDS011;34538;48.836;9.174;2023-12-04T10:26:36;15.20;;;8.53;;
48743;SDS011;34538;48.836;9.174;2023-12-04T10:29:04;13.87;;;8.00;;
48743;SDS011;34538;48.836;9.174;2023-12-04T10:31:32;14.53;;;7.47;;
48743;SDS011;34538;48.836;9.174;2023-12-04T10:33:59;16.00;;;8.20;;
48743;SDS011;34538;48.836;9.174;2023-12-04T10:36:26;15.53;;;8.20;;
48743;SDS011;34538;48.836;9.174;2023-12-04T10:38:59;14.17;;;8.00;;
48743;SDS011;34538;48.836;9.174;2023-12-04T10:41:26;12.87;;;7.10;;
48743;SDS011;34538;48.836;9.174;2023-12-04T10:43:53;16.00;;;8.07;;
48743;SDS011;34538;48.836;9.174;2023-12-04T10:46:22;16.50;;;8.00;;
48743;SDS011;34538;48.836;9.174;2023-12-04T10:48:50;18.40;;;8.37;;
48743;SDS011;34538;48.836;9.174;2023-12-04T10:51:17;13.40;;;7.37;;
48743;SDS011;34538;48.836;9.174;2023-12-04T10:53:47;17.07;;;8.03;;
48743;SDS011;34538;48.836;9.174;2023-12-04T10:56:18;16.50;;;8.33;;
48743;SDS011;34538;48.836;9.174;2023-12-04T10:58:49;15.75;;;8.05;;
48743;SDS011;34538;48.836;9.174;2023-12-04T11:01:19;14.10;;;7.32;;
48743;SDS011;34538;48.836;9.174;2023-12-04T11:03:48;15.47;;;8.23;;
48743;SDS011;34538;48.836;9.174;2023-12-04T11:06:20;16.67;;;7.85;;
48743;SDS011;34538;48.836;9.174;2023-12-04T11:08:49;16.15;;;8.25;;
48743;SDS011;34538;48.836;9.174;2023-12-04T11:11:21;15.63;;;7.43;;
48743;SDS011;34538;48.836;9.174;2023-12-04T11:13:54;16.47;;;7.63;;
48743;SDS011;34538;48.836;9.174;2023-12-04T11:16:39;13.13;;;7.13;;
48743;SDS011;34538;48.836;9.174;2023-12-04T11:19:18;16.07;;;7.97;;
48743;SDS011;34538;48.836;9.174;2023-12-04T11:21:53;15.00;;;8.10;;
48743;SDS011;34538;48.836;9.174;2023-12-04T11:24:24;14.98;;;7.20;;
48743;SDS011;34538;48.836;9.174;2023-12-04T11:26:52;13.63;;;7.20;;
48743;SDS011;34538;48.836;9.174;2023-12-04T11:29:20;13.95;;;7.70;;
48743;SDS011;34538;48.836;9.174;2023-12-04T11:31:48;14.63;;;7.43;;
48743;SDS011;34538;48.836;9.174;2023-12-04T11:34:15;14.70;;;7.97;;
48743;SDS011;34538;48.836;9.174;2023-12-04T11:36:43;13.05;;;7.93;;
48743;SDS011;34538;48.836;9.174;2023-12-04T11:39:10;13.80;;;7.63;;
48743;SDS011;34538;48.836;9.174;2023-12-04T11:41:37;12.70;;;7.18;;
48743;SDS011;34538;48.836;9.174;2023-12-04T11:44:12;15.82;;;7.93;;
48743;SDS011;34538;48.836;9.174;2023-12-04T11:46:54;14.32;;;7.15;;
48743;SDS011;34538;48.836;9.174;2023-12-04T11:49:27;19.75;;;7.43;;
48743;SDS011;34538;48.836;9.174;2023-12-04T11:51:55;16.90;;;7.25;;
48743;SDS011;34538;48.836;9.174;2023-12-04T11:54:22;15.68;;;7.95;;
48743;SDS011;34538;48.836;9.174;2023-12-04T11:57:19;15.25;;;7.93;;
48743;SDS011;34538;48.836;9.174;2023-12-04T11:59:50;17.23;;;7.05;;
48743;SDS011;34538;48.836;9.174;2023-12-04T12:02:18;13.38;;;7.43;;
48743;SDS011;34538;48.836;9.174;2023-12-04T12:04:45;14.82;;;7.70;;
48743;SDS011;34538;48.836;9.174;2023-12-04T12:07:12;15.20;;;7.97;;
48743;SDS011;34538;48.836;9.174;2023-12-04T12:09:40;12.10;;;7.13;;
48743;SDS011;34538;48.836;9.174;2023-12-04T12:12:08;15.18;;;8.18;;
48743;SDS011;34538;48.836;9.174;2023-12-04T12:14:35;13.98;;;7.25;;
48743;SDS011;34538;48.836;9.174;2023-12-04T12:17:04;14.75;;;7.95;;
48743;SDS011;34538;48.836;9.174;2023-12-04T12:19:32;12.77;;;7.15;;
48743;SDS011;34538;48.836;9.174;2023-12-04T12:21:58;15.27;;;7.78;;
48743;SDS011;34538;48.836;9.174;2023-12-04T12:24:25;13.57;;;8.15;;
48743;SDS011;34538;48.836;9.174;2023-12-04T12:26:53;13.45;;;7.65;;
48743;SDS011;34538;48.836;9.174;2023-12-04T12:29:20;12.77;;;7.15;;
48743;SDS011;34538;48.836;9.174;2023-12-04T12:31:47;14.20;;;7.37;;
48743;SDS011;34538;48.836;9.174;2023-12-04T12:34:15;18.10;;;7.45;;
48743;SDS011;34538;48.836;9.174;2023-12-04T12:36:42;13.90;;;7.60;;
48743;SDS011;34538;48.836;9.174;2023-12-04T12:39:09;14.32;;;8.00;;
48743;SDS011;34538;48.836;9.174;2023-12-04T12:41:37;12.48;;;6.80;;
48743;SDS011;34538;48.836;9.174;2023-12-04T12:44:04;13.90;;;6.93;;
48743;SDS011;34538;48.836;9.174;2023-12-04T12:46:31;13.65;;;7.32;;
48743;SDS011;34538;48.836;9.174;2023-12-04T12:48:58;13.07;;;7.60;;
48743;SDS011;34538;48.836;9.174;2023-12-04T12:51:26;13.63;;;6.97;;
48743;SDS011;34538;48.836;9.174;2023-12-04T12:53:56;12.38;;;6.50;;
48743;SDS011;34538;48.836;9.174;2023-12-04T12:56:24;10.70;;;6.13;;
48743;SDS011;34538;48.836;9.174;2023-12-04T12:58:52;14.05;;;6.78;;
48743;SDS011;34538;48.836;9.174;2023-12-04T13:01:19;14.55;;;6.57;;
48743;SDS011;34538;48.836;9.174;2023-12-04T13:03:50;11.77;;;6.80;;
48743;SDS011;34538;48.836;9.174;2023-12-04T13:06:17;13.88;;;8.10;;
48743;SDS011;34538;48.836;9.174;2023-12-04T13:08:45;15.48;;;8.00;;
48743;SDS011;34538;48.836;9.174;2023-12-04T13:11:12;15.07;;;8.40;;
48743;SDS011;34538;48.836;9.174;2023-12-04T13:13:39;17.95;;;7.85;;
48743;SDS011;34538;48.836;9.174;2023-12-04T13:16:07;16.60;;;8.40;;
48743;SDS011;34538;48.836;9.174;2023-12-04T13:18:34;16.33;;;8.52;;
48743;SDS011;34538;48.836;9.174;2023-12-04T13:21:03;14.75;;;9.32;;
48743;SDS011;34538;48.836;9.174;2023-12-04T13:23:30;15.13;;;9.45;;
48743;SDS011;34538;48.836;9.174;2023-12-04T13:25:58;18.00;;;10.05;;
48743;SDS011;34538;48.836;9.174;2023-12-04T13:28:25;16.77;;;9.57;;
48743;SDS011;34538;48.836;9.174;2023-12-04T13:30:52;17.13;;;9.73;;
48743;SDS011;34538;48.836;9.174;2023-12-04T13:33:20;17.50;;;9.35;;
48743;SDS011;34538;48.836;9.174;2023-12-04T13:35:47;16.58;;;8.73;;
48743;SDS011;34538;48.836;9.174;2023-12-04T13:38:14;17.63;;;9.68;;
48743;SDS011;34538;48.836;9.174;2023-12-04T13:40:41;19.88;;;9.40;;
48743;SDS011;34538;48.836;9.174;2023-12-04T13:43:18;16.52;;;9.45;;
48743;SDS011;34538;48.836;9.174;2023-12-04T13:46:03;17.73;;;9.73;;
48743;SDS011;34538;48.836;9.174;2023-12-04T13:48:34;18.23;;;9.95;;
48743;SDS011;34538;48.836;9.174;2023-12-04T13:51:05;22.27;;;10.65;;
48743;SDS011;34538;48.836;9.174;2023-12-04T13:53:33;17.83;;;10.80;;
48743;SDS011;34538;48.836;9.174;2023-12-04T13:56:00;17.88;;;10.55;;
48743;SDS011;34538;48.836;9.174;2023-12-04T13:58:51;19.35;;;9.63;;
48743;SDS011;34538;48.836;9.174;2023-12-04T14:01:22;15.25;;;9.30;;
48743;SDS011;34538;48.836;9.174;2023-12-04T14:03:51;17.10;;;8.75;;
48743;SDS011;34538;48.836;9.174;2023-12-04T14:06:18;18.25;;;9.38;;
48743;SDS011;34538;48.836;9.174;2023-12-04T14:08:46;15.20;;;9.32;;
48743;SDS011;34538;48.836;9.174;2023-12-04T14:11:12;16.75;;;9.90;;
48743;SDS011;34538;48.836;9.174;2023-12-04T14:13:40;15.80;;;9.05;;
48743;SDS011;34538;48.836;9.174;2023-12-04T14:16:09;17.00;;;9.20;;
48743;SDS011;34538;48.836;9.174;2023-12-04T14:18:36;17.08;;;9.60;;
48743;SDS011;34538;48.836;9.174;2023-12-04T14:21:03;19.40;;;9.68;;
48743;SDS011;34538;48.836;9.174;2023-12-04T14:23:30;19.15;;;10.07;;
48743;SDS011;34538;48.836;9.174;2023-12-04T14:25:57;18.03;;;10.17;;
48743;SDS011;34538;48.836;9.174;2023-12-04T14:28:24;18.65;;;9.80;;
48743;SDS011;34538;48.836;9.174;2023-12-04T14:30:51;19.38;;;10.48;;
48743;SDS011;34538;48.836;9.174;2023-12-04T14:33:19;16.75;;;8.82;;
48743;SDS011;34538;48.836;9.174;2023-12-04T14:35:46;19.45;;;9.80;;